PAEH

Cape Newenham LRRS Airport

Airport
ICAO code
PAEH
IATA Code
EHM
Summary
ICAO Region
NAM
ICAO Territory
Location

Cape Newenham, Alaska

Serving
Cape Newenham
Elevation
541 ft
Coordinates
58° 38' 47" N , 162° 3' 46" W
Metar
PAEH 201755Z AUTO 01002KT 10SM CLR 11/08 A3026 RMK AO2 SLP250 T01050084 10122 20073 57002

Runways

Designator Length Width Surface Rops
14/32 1204 46 GVL No/No

Airport map

Aerial View

SKYbrary Partners:

Safety knowledge contributed by: